createdAt,value
2018-07-21T00:00:01.013Z,0
2018-07-21T00:01:01.435Z,0
2018-07-21T00:02:01.122Z,0
2018-07-21T00:03:00.843Z,0
2018-07-21T00:04:00.852Z,0
2018-07-21T00:05:00.886Z,0
2018-07-21T00:06:01.173Z,0
2018-07-21T00:07:01.195Z,0
2018-07-21T00:08:01.220Z,0
2018-07-21T00:09:01.247Z,0
2018-07-21T00:10:00.748Z,0
2018-07-21T00:11:01.290Z,0
2018-07-21T00:12:01.064Z,0
2018-07-21T00:13:01.083Z,0
2018-07-21T00:14:01.114Z,0
2018-07-21T00:15:01.132Z,0
2018-07-21T00:16:01.421Z,0
2018-07-21T00:17:01.454Z,0
2018-07-21T00:18:01.209Z,0
2018-07-21T00:19:01.240Z,0
2018-07-21T00:20:01.008Z,0
2018-07-21T00:21:01.343Z,0
2018-07-21T00:22:01.334Z,0
2018-07-21T00:23:01.600Z,0
2018-07-21T00:24:01.367Z,0
2018-07-21T00:25:01.654Z,0
2018-07-21T00:26:01.416Z,0
2018-07-21T00:27:01.738Z,0
2018-07-21T00:28:01.217Z,0
2018-07-21T00:29:01.755Z,0
2018-07-21T00:30:01.785Z,0
2018-07-21T00:31:01.544Z,0
2018-07-21T00:32:01.572Z,0
2018-07-21T00:33:01.916Z,0
2018-07-21T00:34:01.630Z,0
2018-07-21T00:35:01.135Z,0
2018-07-21T00:36:01.937Z,0
2018-07-21T00:37:01.706Z,0
2018-07-21T00:38:01.729Z,0
2018-07-21T00:39:01.496Z,0
2018-07-21T00:40:01.780Z,0
2018-07-21T00:41:02.062Z,0
2018-07-21T00:42:01.832Z,0
2018-07-21T00:43:02.112Z,0
2018-07-21T00:44:02.140Z,0
2018-07-21T00:45:01.644Z,0
2018-07-21T00:46:01.930Z,0
2018-07-21T00:47:02.216Z,0
2018-07-21T00:48:02.240Z,0
2018-07-21T00:49:02.009Z,0
2018-07-21T00:50:01.775Z,0
2018-07-21T00:51:02.062Z,0
2018-07-21T00:52:02.347Z,0
2018-07-21T00:53:02.383Z,0
2018-07-21T00:54:02.148Z,0
2018-07-21T00:55:02.162Z,0
2018-07-21T00:56:01.933Z,0
2018-07-21T00:57:02.470Z,0
2018-07-21T00:58:02.495Z,0
2018-07-21T00:59:02.006Z,0
2018-07-21T01:00:02.290Z,0
2018-07-21T01:01:02.311Z,0
2018-07-21T01:02:02.340Z,0
2018-07-21T01:03:02.365Z,0
2018-07-21T01:04:02.451Z,0
2018-07-21T01:05:02.677Z,0
2018-07-21T01:06:02.700Z,0
2018-07-21T01:07:02.770Z,0
2018-07-21T01:08:02.762Z,0
2018-07-21T01:09:02.781Z,0
2018-07-21T01:10:02.556Z,0
2018-07-21T01:11:02.922Z,0
2018-07-21T01:12:02.859Z,0
2018-07-21T01:13:02.615Z,0
2018-07-21T01:14:02.903Z,0
2018-07-21T01:15:02.930Z,0
2018-07-21T01:16:02.966Z,0
2018-07-21T01:17:02.987Z,0
2018-07-21T01:18:03.021Z,0
2018-07-21T01:19:02.765Z,0
2018-07-21T01:20:02.808Z,0
2018-07-21T01:21:03.082Z,0
2018-07-21T01:22:03.106Z,0
2018-07-21T01:23:02.869Z,0
2018-07-21T01:24:03.157Z,0
2018-07-21T01:25:02.919Z,0
2018-07-21T01:26:02.687Z,0
2018-07-21T01:27:03.236Z,0
2018-07-21T01:28:02.800Z,0
2018-07-21T01:29:03.283Z,0
2018-07-21T01:30:03.087Z,0
2018-07-21T01:31:03.066Z,0
2018-07-21T01:32:03.366Z,0
2018-07-21T01:33:03.379Z,0
2018-07-21T01:34:03.407Z,0
2018-07-21T01:35:03.449Z,0
2018-07-21T01:36:03.195Z,0
2018-07-21T01:37:03.219Z,0
2018-07-21T01:38:03.253Z,0
2018-07-21T01:39:03.274Z,0
2018-07-21T01:40:03.049Z,0
2018-07-21T01:41:03.577Z,0
2018-07-21T01:42:02.878Z,0
2018-07-21T01:43:03.385Z,0
2018-07-21T01:44:03.660Z,0
2018-07-21T01:45:03.432Z,0
2018-07-21T01:46:03.718Z,0
2018-07-21T01:47:03.209Z,0
2018-07-21T01:48:02.996Z,0
2018-07-21T01:49:03.257Z,0
2018-07-21T01:50:03.851Z,0
2018-07-21T01:51:03.840Z,0
2018-07-21T01:52:03.333Z,0
2018-07-21T01:53:03.644Z,0
2018-07-21T01:54:03.915Z,0
2018-07-21T01:55:03.926Z,0
2018-07-21T01:56:03.690Z,0
2018-07-21T01:57:03.975Z,0
2018-07-21T01:58:03.740Z,0
2018-07-21T01:59:03.507Z,0
2018-07-21T02:00:03.793Z,0
2018-07-21T02:01:03.830Z,0
2018-07-21T02:02:03.584Z,0
2018-07-21T02:03:04.123Z,0
2018-07-21T02:04:03.635Z,0
2018-07-21T02:05:03.921Z,0
2018-07-21T02:06:04.198Z,0
2018-07-21T02:07:03.717Z,0
2018-07-21T02:08:03.982Z,0
2018-07-21T02:09:04.272Z,0
2018-07-21T02:10:04.309Z,0
2018-07-21T02:11:03.800Z,0
2018-07-21T02:12:04.341Z,0
2018-07-21T02:13:04.124Z,0
2018-07-21T02:14:03.879Z,0
2018-07-21T02:15:04.158Z,0
2018-07-21T02:16:03.931Z,0
2018-07-21T02:17:04.474Z,0
2018-07-21T02:18:04.232Z,0
2018-07-21T02:19:04.528Z,0
2018-07-21T02:20:04.290Z,0
2018-07-21T02:21:04.051Z,0
2018-07-21T02:22:04.074Z,0
2018-07-21T02:23:04.638Z,0
2018-07-21T02:24:04.652Z,0
2018-07-21T02:25:04.674Z,0
2018-07-21T02:26:04.697Z,0
2018-07-21T02:27:04.797Z,0
2018-07-21T02:28:03.956Z,0
2018-07-21T02:29:04.503Z,0
2018-07-21T02:30:04.818Z,0
2018-07-21T02:31:04.309Z,0
2018-07-21T02:32:04.842Z,0
2018-07-21T02:33:04.603Z,0
2018-07-21T02:34:04.904Z,0
2018-07-21T02:35:04.652Z,0
2018-07-21T02:36:04.702Z,0
2018-07-21T02:37:04.433Z,0
2018-07-21T02:38:04.469Z,0
2018-07-21T02:39:05.017Z,0
2018-07-21T02:40:04.778Z,0
2018-07-21T02:41:04.808Z,0
2018-07-21T02:42:04.842Z,0
2018-07-21T02:43:05.105Z,0
2018-07-21T02:44:05.171Z,0
2018-07-21T02:45:04.918Z,0
2018-07-21T02:46:04.944Z,0
2018-07-21T02:47:04.691Z,0
2018-07-21T02:48:04.969Z,0
2018-07-21T02:49:05.259Z,0
2018-07-21T02:50:05.056Z,0
2018-07-21T02:51:04.786Z,0
2018-07-21T02:52:05.370Z,0
2018-07-21T02:53:05.350Z,0
2018-07-21T02:54:05.369Z,4
2018-07-21T02:55:05.399Z,4
2018-07-21T02:56:05.161Z,4
2018-07-21T02:57:05.450Z,0
2018-07-21T02:58:04.962Z,0
2018-07-21T02:59:05.488Z,4
2018-07-21T03:00:05.258Z,4
2018-07-21T03:01:05.577Z,0
2018-07-21T03:02:05.057Z,4
2018-07-21T03:03:05.329Z,4
2018-07-21T03:04:05.113Z,4
2018-07-21T03:05:05.656Z,4
2018-07-21T03:06:05.433Z,8
2018-07-21T03:07:05.696Z,4
2018-07-21T03:08:05.728Z,8
2018-07-21T03:09:05.474Z,8
2018-07-21T03:10:05.463Z,8
2018-07-21T03:11:05.519Z,8
2018-07-21T03:12:05.817Z,12
2018-07-21T03:13:05.840Z,12
2018-07-21T03:14:05.600Z,12
2018-07-21T03:15:05.622Z,16
2018-07-21T03:16:05.650Z,12
2018-07-21T03:17:05.678Z,16
2018-07-21T03:18:05.961Z,16
2018-07-21T03:19:05.981Z,16
2018-07-21T03:20:05.753Z,20
2018-07-21T03:21:06.032Z,20
2018-07-21T03:22:06.048Z,20
2018-07-21T03:23:05.854Z,20
2018-07-21T03:24:05.853Z,24
2018-07-21T03:25:05.871Z,24
2018-07-21T03:26:06.239Z,28
2018-07-21T03:27:05.658Z,32
2018-07-21T03:28:05.927Z,32
2018-07-21T03:29:05.951Z,32
2018-07-21T03:30:05.714Z,36
2018-07-21T03:31:05.920Z,36
2018-07-21T03:32:06.305Z,40
2018-07-21T03:33:06.048Z,44
2018-07-21T03:34:06.336Z,44
2018-07-21T03:35:05.572Z,48
2018-07-21T03:36:06.381Z,52
2018-07-21T03:37:06.139Z,52
2018-07-21T03:38:06.165Z,56
2018-07-21T03:39:06.181Z,60
2018-07-21T03:40:05.714Z,64
2018-07-21T03:41:05.981Z,64
2018-07-21T03:42:06.001Z,68
2018-07-21T03:43:06.283Z,72
2018-07-21T03:44:06.309Z,72
2018-07-21T03:45:06.073Z,76
2018-07-21T03:46:06.351Z,76
2018-07-21T03:47:06.393Z,80
2018-07-21T03:48:06.404Z,88
2018-07-21T03:49:06.700Z,92
2018-07-21T03:50:06.203Z,100
2018-07-21T03:51:06.735Z,100
2018-07-21T03:52:06.496Z,104
2018-07-21T03:53:06.523Z,108
2018-07-21T03:54:06.543Z,112
2018-07-21T03:55:07.019Z,116
2018-07-21T03:56:06.593Z,128
2018-07-21T03:57:06.879Z,140
2018-07-21T03:58:06.380Z,152
2018-07-21T03:59:06.411Z,164
2018-07-21T04:00:06.423Z,176
2018-07-21T04:01:06.448Z,188
2018-07-21T04:02:06.473Z,192
2018-07-21T04:03:07.023Z,192
2018-07-21T04:04:06.785Z,192
2018-07-21T04:05:06.803Z,188
2018-07-21T04:06:06.837Z,180
2018-07-21T04:07:06.591Z,172
2018-07-21T04:08:06.354Z,172
2018-07-21T04:09:07.560Z,172
2018-07-21T04:10:06.928Z,180
2018-07-21T04:11:06.953Z,192
2018-07-21T04:12:06.979Z,212
2018-07-21T04:13:07.260Z,240
2018-07-21T04:14:07.018Z,260
2018-07-21T04:15:07.043Z,272
2018-07-21T04:16:07.091Z,284
2018-07-21T04:17:07.092Z,288
2018-07-21T04:18:06.857Z,300
2018-07-21T04:19:07.396Z,316
2018-07-21T04:20:07.165Z,332
2018-07-21T04:21:07.193Z,340
2018-07-21T04:22:07.214Z,344
2018-07-21T04:23:07.228Z,348
2018-07-21T04:24:07.652Z,336
2018-07-21T04:25:07.014Z,328
2018-07-21T04:26:07.314Z,332
2018-07-21T04:27:07.324Z,352
2018-07-21T04:28:07.355Z,376
2018-07-21T04:29:07.108Z,396
2018-07-21T04:30:07.209Z,408
2018-07-21T04:31:07.684Z,416
2018-07-21T04:32:07.705Z,404
2018-07-21T04:33:07.466Z,384
2018-07-21T04:34:07.747Z,376
2018-07-21T04:35:07.253Z,376
2018-07-21T04:36:07.557Z,380
2018-07-21T04:37:07.818Z,360
2018-07-21T04:38:07.606Z,328
2018-07-21T04:39:07.352Z,316
2018-07-21T04:40:07.374Z,316
2018-07-21T04:41:07.911Z,328
2018-07-21T04:42:07.961Z,348
2018-07-21T04:43:07.972Z,368
2018-07-21T04:44:07.468Z,392
2018-07-21T04:45:07.754Z,424
2018-07-21T04:46:07.525Z,432
2018-07-21T04:47:08.053Z,428
2018-07-21T04:48:07.818Z,408
2018-07-21T04:49:08.118Z,392
2018-07-21T04:50:07.881Z,388
2018-07-21T04:51:08.149Z,388
2018-07-21T04:52:07.965Z,400
2018-07-21T04:53:08.214Z,404
2018-07-21T04:54:08.372Z,408
2018-07-21T04:55:07.990Z,400
2018-07-21T04:56:08.015Z,380
2018-07-21T04:57:08.040Z,368
2018-07-21T04:58:07.808Z,360
2018-07-21T04:59:08.082Z,356
2018-07-21T05:00:08.107Z,356
2018-07-21T05:01:08.382Z,348
2018-07-21T05:02:08.145Z,352
2018-07-21T05:03:08.434Z,352
2018-07-21T05:04:08.223Z,356
2018-07-21T05:05:07.964Z,356
2018-07-21T05:06:08.012Z,368
2018-07-21T05:07:08.266Z,388
2018-07-21T05:08:08.290Z,412
2018-07-21T05:09:08.052Z,432
2018-07-21T05:10:08.602Z,444
2018-07-21T05:11:08.097Z,448
2018-07-21T05:12:08.408Z,448
2018-07-21T05:13:08.407Z,444
2018-07-21T05:14:08.434Z,436
2018-07-21T05:15:08.712Z,432
2018-07-21T05:16:08.225Z,432
2018-07-21T05:17:08.245Z,444
2018-07-21T05:18:08.530Z,432
2018-07-21T05:19:08.809Z,420
2018-07-21T05:20:09.062Z,412
2018-07-21T05:21:08.337Z,400
2018-07-21T05:22:08.362Z,392
2018-07-21T05:23:08.918Z,388
2018-07-21T05:24:08.932Z,384
2018-07-21T05:25:08.947Z,384
2018-07-21T05:26:08.448Z,380
2018-07-21T05:27:08.737Z,380
2018-07-21T05:28:09.021Z,380
2018-07-21T05:29:08.786Z,384
2018-07-21T05:30:08.811Z,388
2018-07-21T05:31:08.833Z,388
2018-07-21T05:32:08.852Z,392
2018-07-21T05:33:09.137Z,400
2018-07-21T05:34:08.643Z,404
2018-07-21T05:35:09.186Z,408
2018-07-21T05:36:08.687Z,408
2018-07-21T05:37:08.974Z,412
2018-07-21T05:38:08.737Z,412
2018-07-21T05:39:09.300Z,412
2018-07-21T05:40:08.783Z,416
2018-07-21T05:41:09.333Z,420
2018-07-21T05:42:09.101Z,424
2018-07-21T05:43:09.120Z,424
2018-07-21T05:44:09.405Z,428
2018-07-21T05:45:09.036Z,424
2018-07-21T05:46:09.450Z,424
2018-07-21T05:47:09.214Z,428
2018-07-21T05:48:09.231Z,428
2018-07-21T05:49:09.514Z,432
2018-07-21T05:50:09.287Z,436
2018-07-21T05:51:09.309Z,440
2018-07-21T05:52:09.324Z,440
2018-07-21T05:53:09.799Z,440
2018-07-21T05:54:09.375Z,444
2018-07-21T05:55:09.397Z,444
2018-07-21T05:56:09.420Z,444
2018-07-21T05:57:09.445Z,448
2018-07-21T05:58:09.204Z,448
2018-07-21T05:59:09.226Z,448
2018-07-21T06:00:09.791Z,448
2018-07-21T06:01:09.796Z,448
2018-07-21T06:02:09.560Z,448
2018-07-21T06:03:09.985Z,448
2018-07-21T06:04:09.611Z,448
2018-07-21T06:05:09.632Z,448
2018-07-21T06:06:09.921Z,444
2018-07-21T06:07:09.688Z,444
2018-07-21T06:08:09.702Z,440
2018-07-21T06:09:09.988Z,436
2018-07-21T06:10:09.228Z,436
2018-07-21T06:11:10.064Z,436
2018-07-21T06:12:09.803Z,432
2018-07-21T06:13:09.821Z,436
2018-07-21T06:14:09.846Z,440
2018-07-21T06:15:09.613Z,440
2018-07-21T06:16:09.640Z,440
2018-07-21T06:17:09.769Z,444
2018-07-21T06:18:09.935Z,448
2018-07-21T06:19:10.232Z,448
2018-07-21T06:20:09.724Z,452
2018-07-21T06:21:10.012Z,456
2018-07-21T06:22:10.036Z,456
2018-07-21T06:23:10.320Z,460
2018-07-21T06:24:10.090Z,456
2018-07-21T06:25:10.324Z,464
2018-07-21T06:26:09.875Z,468
2018-07-21T06:27:09.917Z,476
2018-07-21T06:28:10.425Z,480
2018-07-21T06:29:10.214Z,488
2018-07-21T06:30:10.242Z,496
2018-07-21T06:31:10.243Z,504
2018-07-21T06:32:10.173Z,512
2018-07-21T06:33:10.091Z,520
2018-07-21T06:34:10.584Z,524
2018-07-21T06:35:10.086Z,528
2018-07-21T06:36:10.393Z,536
2018-07-21T06:37:09.872Z,544
2018-07-21T06:38:10.695Z,552
2018-07-21T06:39:10.442Z,560
2018-07-21T06:40:10.216Z,572
2018-07-21T06:41:10.487Z,592
2018-07-21T06:42:10.769Z,608
2018-07-21T06:43:11.100Z,628
2018-07-21T06:44:10.556Z,644
2018-07-21T06:45:10.676Z,668
2018-07-21T06:46:10.873Z,692
2018-07-21T06:47:10.368Z,708
2018-07-21T06:48:10.790Z,728
2018-07-21T06:49:10.930Z,748
2018-07-21T06:50:11.165Z,760
2018-07-21T06:51:10.469Z,776
2018-07-21T06:52:10.747Z,792
2018-07-21T06:53:10.538Z,804
2018-07-21T06:54:11.055Z,804
2018-07-21T06:55:11.093Z,816
2018-07-21T06:56:10.856Z,824
2018-07-21T06:57:10.871Z,824
2018-07-21T06:58:10.645Z,828
2018-07-21T06:59:11.465Z,828
2018-07-21T07:00:10.751Z,816
2018-07-21T07:01:11.225Z,784
2018-07-21T07:02:11.251Z,768
2018-07-21T07:03:11.302Z,760
2018-07-21T07:04:11.034Z,764
2018-07-21T07:05:11.061Z,776
2018-07-21T07:06:11.154Z,788
2018-07-21T07:07:11.396Z,804
2018-07-21T07:08:11.135Z,812
2018-07-21T07:09:10.897Z,824
2018-07-21T07:10:10.987Z,832
2018-07-21T07:11:11.212Z,836
2018-07-21T07:12:11.225Z,840
2018-07-21T07:13:11.537Z,848
2018-07-21T07:14:11.283Z,844
2018-07-21T07:15:11.576Z,840
2018-07-21T07:16:11.588Z,836
2018-07-21T07:17:11.477Z,820
2018-07-21T07:18:11.378Z,816
2018-07-21T07:19:11.665Z,820
2018-07-21T07:20:11.169Z,828
2018-07-21T07:21:11.198Z,848
2018-07-21T07:22:11.214Z,856
2018-07-21T07:23:11.492Z,868
2018-07-21T07:24:11.531Z,876
2018-07-21T07:25:11.804Z,896
2018-07-21T07:26:11.578Z,904
2018-07-21T07:27:11.604Z,908
2018-07-21T07:28:11.882Z,908
2018-07-21T07:29:11.387Z,908
2018-07-21T07:30:11.932Z,904
2018-07-21T07:31:11.434Z,888
2018-07-21T07:32:11.975Z,868
2018-07-21T07:33:12.005Z,848
2018-07-21T07:34:11.772Z,848
2018-07-21T07:35:12.263Z,840
2018-07-21T07:36:11.840Z,840
2018-07-21T07:37:11.580Z,844
2018-07-21T07:38:12.124Z,852
2018-07-21T07:39:11.891Z,868
2018-07-21T07:40:11.919Z,892
2018-07-21T07:41:12.197Z,924
2018-07-21T07:42:12.456Z,948
2018-07-21T07:43:11.747Z,972
2018-07-21T07:44:12.274Z,984
2018-07-21T07:45:12.042Z,1000
2018-07-21T07:46:12.083Z,1016
2018-07-21T07:47:12.090Z,1036
2018-07-21T07:48:12.115Z,1068
2018-07-21T07:49:11.622Z,1096
2018-07-21T07:50:12.591Z,1128
2018-07-21T07:51:11.988Z,1160
2018-07-21T07:52:12.471Z,1192
2018-07-21T07:53:11.983Z,1232
2018-07-21T07:54:12.273Z,1264
2018-07-21T07:55:12.285Z,1280
2018-07-21T07:56:12.580Z,1292
2018-07-21T07:57:12.616Z,1304
2018-07-21T07:58:12.367Z,1320
2018-07-21T07:59:12.392Z,1336
2018-07-21T08:00:12.684Z,1336
2018-07-21T08:01:12.532Z,1344
2018-07-21T08:02:12.467Z,1352
2018-07-21T08:03:12.488Z,1360
2018-07-21T08:04:12.258Z,1364
2018-07-21T08:05:12.283Z,1376
2018-07-21T08:06:12.310Z,1388
2018-07-21T08:07:12.852Z,1400
2018-07-21T08:08:12.622Z,1404
2018-07-21T08:09:12.909Z,1392
2018-07-21T08:10:12.933Z,1404
2018-07-21T08:11:12.695Z,1412
2018-07-21T08:12:12.719Z,1400
2018-07-21T08:13:12.489Z,1404
2018-07-21T08:14:12.948Z,1424
2018-07-21T08:15:12.804Z,1432
2018-07-21T08:16:12.833Z,1472
2018-07-21T08:17:12.853Z,1492
2018-07-21T08:18:12.984Z,1500
2018-07-21T08:19:13.202Z,1516
2018-07-21T08:20:13.185Z,1532
2018-07-21T08:21:13.213Z,1548
2018-07-21T08:22:12.989Z,1556
2018-07-21T08:23:13.013Z,1572
2018-07-21T08:24:13.034Z,1620
2018-07-21T08:25:13.324Z,1668
2018-07-21T08:26:13.341Z,1748
2018-07-21T08:27:13.369Z,1920
2018-07-21T08:28:13.391Z,2076
2018-07-21T08:29:13.348Z,2232
2018-07-21T08:30:13.449Z,2312
2018-07-21T08:31:13.213Z,2336
2018-07-21T08:32:13.500Z,2308
2018-07-21T08:33:13.005Z,2284
2018-07-21T08:34:13.299Z,2264
2018-07-21T08:35:13.325Z,2236
2018-07-21T08:36:13.347Z,2236
2018-07-21T08:37:13.370Z,2260
2018-07-21T08:38:13.671Z,2252
2018-07-21T08:39:13.687Z,2176
2018-07-21T08:40:13.763Z,2156
2018-07-21T08:41:13.495Z,2132
2018-07-21T08:42:13.768Z,2148
2018-07-21T08:43:13.270Z,2188
2018-07-21T08:44:13.841Z,2212
2018-07-21T08:45:13.844Z,2212
2018-07-21T08:46:13.354Z,2192
2018-07-21T08:47:13.639Z,2168
2018-07-21T08:48:13.931Z,2136
2018-07-21T08:49:13.693Z,2108
2018-07-21T08:50:13.728Z,2052
2018-07-21T08:51:13.485Z,2032
2018-07-21T08:52:14.044Z,2048
2018-07-21T08:53:14.064Z,2052
2018-07-21T08:54:14.096Z,2128
2018-07-21T08:55:14.121Z,2176
2018-07-21T08:56:13.377Z,2324
2018-07-21T08:57:13.934Z,2528
2018-07-21T08:58:13.682Z,2684
2018-07-21T08:59:14.227Z,2784
2018-07-21T09:00:13.996Z,2904
2018-07-21T09:01:14.024Z,3000
2018-07-21T09:02:13.786Z,2928
2018-07-21T09:03:14.131Z,2872
2018-07-21T09:04:14.102Z,2860
2018-07-21T09:05:13.881Z,2804
2018-07-21T09:06:14.424Z,2732
2018-07-21T09:07:14.459Z,2736
2018-07-21T09:08:14.475Z,2784
2018-07-21T09:09:14.245Z,2828
2018-07-21T09:10:14.536Z,2852
2018-07-21T09:11:14.589Z,2868
2018-07-21T09:12:14.329Z,2924
2018-07-21T09:13:14.224Z,3104
2018-07-21T09:14:14.645Z,2948
2018-07-21T09:15:14.416Z,2868
2018-07-21T09:16:14.703Z,2780
2018-07-21T09:17:14.472Z,2736
2018-07-21T09:18:14.504Z,2856
2018-07-21T09:19:14.785Z,2884
2018-07-21T09:20:14.819Z,2920
2018-07-21T09:21:14.846Z,2924
2018-07-21T09:22:14.356Z,2944
2018-07-21T09:23:14.653Z,2924
2018-07-21T09:24:14.935Z,2824
2018-07-21T09:25:14.957Z,2752
2018-07-21T09:26:14.994Z,2780
2018-07-21T09:27:15.023Z,2976
2018-07-21T09:28:15.387Z,2992
2018-07-21T09:29:15.074Z,2980
2018-07-21T09:30:14.852Z,2928
2018-07-21T09:31:15.135Z,2808
2018-07-21T09:32:15.161Z,2916
2018-07-21T09:33:14.929Z,3288
2018-07-21T09:34:15.564Z,3464
2018-07-21T09:35:14.990Z,3528
2018-07-21T09:36:15.284Z,3540
2018-07-21T09:37:15.050Z,3484
2018-07-21T09:38:15.336Z,3504
2018-07-21T09:39:15.108Z,3464
2018-07-21T09:40:15.731Z,3448
2018-07-21T09:41:15.166Z,3364
2018-07-21T09:42:14.940Z,3252
2018-07-21T09:43:15.225Z,3064
2018-07-21T09:44:15.268Z,2996
2018-07-21T09:45:15.281Z,3012
2018-07-21T09:46:15.316Z,3088
2018-07-21T09:47:15.606Z,3180
2018-07-21T09:48:15.368Z,3312
2018-07-21T09:49:15.480Z,3388
2018-07-21T09:50:15.693Z,3408
2018-07-21T09:51:15.730Z,3464
2018-07-21T09:52:15.230Z,3428
2018-07-21T09:53:15.781Z,3344
2018-07-21T09:54:15.550Z,3268
2018-07-21T09:55:15.580Z,3040
2018-07-21T09:56:15.880Z,2868
2018-07-21T09:57:15.645Z,2696
2018-07-21T09:58:15.417Z,2456
2018-07-21T09:59:15.706Z,2236
2018-07-21T10:00:15.734Z,2092
2018-07-21T10:01:15.765Z,2016
2018-07-21T10:02:15.794Z,1968
2018-07-21T10:03:15.825Z,1912
2018-07-21T10:04:16.114Z,1900
2018-07-21T10:05:15.888Z,1904
2018-07-21T10:06:15.919Z,1924
2018-07-21T10:07:16.210Z,1884
2018-07-21T10:08:15.974Z,1812
2018-07-21T10:09:16.009Z,1768
2018-07-21T10:10:16.351Z,1792
2018-07-21T10:11:16.328Z,1908
2018-07-21T10:12:16.375Z,2012
2018-07-21T10:13:16.416Z,2184
2018-07-21T10:14:16.436Z,2440
2018-07-21T10:15:16.461Z,2740
2018-07-21T10:16:16.223Z,2976
2018-07-21T10:17:16.520Z,3196
2018-07-21T10:18:16.556Z,3152
2018-07-21T10:19:16.315Z,3136
2018-07-21T10:20:16.608Z,3304
2018-07-21T10:21:16.380Z,3256
2018-07-21T10:22:16.986Z,3236
2018-07-21T10:23:16.702Z,3264
2018-07-21T10:24:16.728Z,3604
2018-07-21T10:25:16.500Z,3920
2018-07-21T10:26:16.811Z,4180
2018-07-21T10:27:16.823Z,4200
2018-07-21T10:28:17.145Z,4084
2018-07-21T10:29:16.625Z,3896
2018-07-21T10:30:17.141Z,3364
2018-07-21T10:31:16.978Z,3096
2018-07-21T10:32:16.992Z,2920
2018-07-21T10:33:17.000Z,2824
2018-07-21T10:34:16.780Z,2784
2018-07-21T10:35:17.086Z,2792
2018-07-21T10:36:16.844Z,2856
2018-07-21T10:37:16.613Z,2912
2018-07-21T10:38:17.408Z,2924
2018-07-21T10:39:17.196Z,2940
2018-07-21T10:40:17.242Z,3012
2018-07-21T10:41:16.740Z,3124
2018-07-21T10:42:17.296Z,3212
2018-07-21T10:43:17.059Z,3232
2018-07-21T10:44:17.355Z,3192
2018-07-21T10:45:17.399Z,3128
2018-07-21T10:46:17.417Z,3056
2018-07-21T10:47:17.189Z,3040
2018-07-21T10:48:17.232Z,3056
2018-07-21T10:49:17.005Z,3116
2018-07-21T10:50:17.549Z,3208
2018-07-21T10:51:17.596Z,3324
2018-07-21T10:52:17.360Z,3408
2018-07-21T10:53:17.644Z,3536
2018-07-21T10:54:17.432Z,3640
2018-07-21T10:55:17.704Z,3800
2018-07-21T10:56:17.747Z,3844
2018-07-21T10:57:17.772Z,3784
2018-07-21T10:58:17.798Z,3716
2018-07-21T10:59:17.856Z,3676
2018-07-21T11:00:17.495Z,3632
2018-07-21T11:01:17.894Z,3580
2018-07-21T11:02:17.922Z,3536
2018-07-21T11:03:17.696Z,3484
2018-07-21T11:04:17.989Z,3440
2018-07-21T11:05:18.019Z,3376
2018-07-21T11:06:17.791Z,3284
2018-07-21T11:07:18.145Z,3176
2018-07-21T11:08:18.241Z,3088
2018-07-21T11:09:18.157Z,3000
2018-07-21T11:10:17.924Z,2948
2018-07-21T11:11:17.958Z,2940
2018-07-21T11:12:17.731Z,2936
2018-07-21T11:13:18.294Z,2936
2018-07-21T11:14:18.308Z,2976
2018-07-21T11:15:18.360Z,3016
2018-07-21T11:16:18.367Z,3052
2018-07-21T11:17:18.413Z,3068
2018-07-21T11:18:18.432Z,3088
2018-07-21T11:19:18.221Z,3064
2018-07-21T11:20:18.245Z,3024
2018-07-21T11:21:18.535Z,2960
2018-07-21T11:22:18.332Z,2876
2018-07-21T11:23:18.347Z,2804
2018-07-21T11:24:18.631Z,2680
2018-07-21T11:25:18.660Z,2540
2018-07-21T11:26:18.696Z,2480
2018-07-21T11:27:18.736Z,2516
2018-07-21T11:28:18.757Z,2608
2018-07-21T11:29:18.271Z,2708
2018-07-21T11:30:18.563Z,2836
2018-07-21T11:31:18.859Z,2964
2018-07-21T11:32:18.387Z,3120
2018-07-21T11:33:18.657Z,3276
2018-07-21T11:34:18.690Z,3408
2018-07-21T11:35:19.606Z,3508
2018-07-21T11:36:19.948Z,3628
2018-07-21T11:37:19.067Z,3780
2018-07-21T11:38:18.826Z,3992
2018-07-21T11:39:19.161Z,4216
2018-07-21T11:40:19.146Z,4388
2018-07-21T11:41:18.916Z,4476
2018-07-21T11:42:18.946Z,4692
2018-07-21T11:43:19.254Z,4516
2018-07-21T11:44:18.754Z,4332
2018-07-21T11:45:19.315Z,4164
2018-07-21T11:46:19.346Z,3968
2018-07-21T11:47:19.364Z,3792
2018-07-21T11:48:19.145Z,3656
2018-07-21T11:49:18.914Z,3528
2018-07-21T11:50:19.473Z,3440
2018-07-21T11:51:18.718Z,3420
2018-07-21T11:52:19.528Z,3452
2018-07-21T11:53:19.612Z,3540
2018-07-21T11:54:19.595Z,3648
2018-07-21T11:55:19.372Z,3724
2018-07-21T11:56:19.668Z,3720
2018-07-21T11:57:18.914Z,3636
2018-07-21T11:58:19.733Z,3544
2018-07-21T11:59:19.956Z,3488
2018-07-21T12:00:19.529Z,3476
2018-07-21T12:01:19.820Z,3476
2018-07-21T12:02:19.866Z,3516
2018-07-21T12:03:19.886Z,3576
2018-07-21T12:04:19.661Z,3656
2018-07-21T12:05:20.100Z,3740
2018-07-21T12:06:19.460Z,3772
2018-07-21T12:07:20.023Z,3776
2018-07-21T12:08:20.047Z,3780
2018-07-21T12:09:19.561Z,3780
2018-07-21T12:10:19.597Z,3816
2018-07-21T12:11:19.886Z,3872
2018-07-21T12:12:19.917Z,3896
2018-07-21T12:13:20.093Z,3944
2018-07-21T12:14:19.984Z,4004
2018-07-21T12:15:20.024Z,4064
2018-07-21T12:16:20.046Z,4076
2018-07-21T12:17:19.959Z,4040
2018-07-21T12:18:20.391Z,4000
2018-07-21T12:19:20.401Z,3976
2018-07-21T12:20:20.713Z,3916
2018-07-21T12:21:20.475Z,3840
2018-07-21T12:22:20.241Z,3752
2018-07-21T12:23:20.273Z,3716
2018-07-21T12:24:20.576Z,3704
2018-07-21T12:25:20.602Z,3668
2018-07-21T12:26:20.374Z,3620
2018-07-21T12:27:20.664Z,3608
2018-07-21T12:28:20.710Z,3640
2018-07-21T12:29:19.950Z,3680
2018-07-21T12:30:20.763Z,3708
2018-07-21T12:31:20.539Z,3720
2018-07-21T12:32:20.832Z,3736
2018-07-21T12:33:20.863Z,3792
2018-07-21T12:34:20.901Z,3848
2018-07-21T12:35:20.937Z,3864
2018-07-21T12:36:20.962Z,3844
2018-07-21T12:37:20.753Z,3824
2018-07-21T12:38:21.027Z,3860
2018-07-21T12:39:20.798Z,3924
2018-07-21T12:40:21.210Z,4020
2018-07-21T12:41:21.143Z,4100
2018-07-21T12:42:20.901Z,4112
2018-07-21T12:43:21.195Z,4096
2018-07-21T12:44:21.219Z,4120
2018-07-21T12:45:21.254Z,4168
2018-07-21T12:46:20.506Z,4184
2018-07-21T12:47:21.607Z,4228
2018-07-21T12:48:21.353Z,4232
2018-07-21T12:49:21.394Z,4196
2018-07-21T12:50:21.163Z,4116
2018-07-21T12:51:21.449Z,4040
2018-07-21T12:52:21.227Z,3960
2018-07-21T12:53:21.527Z,3840
2018-07-21T12:54:21.557Z,3684
2018-07-21T12:55:21.442Z,3576
2018-07-21T12:56:21.614Z,3516
2018-07-21T12:57:21.389Z,3456
2018-07-21T12:58:21.164Z,3408
2018-07-21T12:59:21.198Z,3360
2018-07-21T13:00:21.750Z,3324
2018-07-21T13:01:21.783Z,3312
2018-07-21T13:02:21.818Z,3288
2018-07-21T13:03:22.108Z,3256
2018-07-21T13:04:21.889Z,3268
2018-07-21T13:05:21.668Z,3408
2018-07-21T13:06:21.947Z,3408
2018-07-21T13:07:21.717Z,3384
2018-07-21T13:08:21.748Z,3332
2018-07-21T13:09:21.524Z,3300
2018-07-21T13:10:21.813Z,3304
2018-07-21T13:11:21.595Z,3316
2018-07-21T13:12:22.150Z,3292
2018-07-21T13:13:21.915Z,3288
2018-07-21T13:14:21.945Z,3312
2018-07-21T13:15:21.979Z,3384
2018-07-21T13:16:22.016Z,3348
2018-07-21T13:17:22.305Z,3236
2018-07-21T13:18:22.083Z,3160
2018-07-21T13:19:21.849Z,3148
2018-07-21T13:20:22.141Z,3236
2018-07-21T13:21:22.181Z,3380
2018-07-21T13:22:22.474Z,3556
2018-07-21T13:23:22.241Z,3656
2018-07-21T13:24:22.272Z,3716
2018-07-21T13:25:22.314Z,3904
2018-07-21T13:26:22.084Z,3972
2018-07-21T13:27:22.126Z,3836
2018-07-21T13:28:22.669Z,3640
2018-07-21T13:29:22.708Z,3540
2018-07-21T13:30:22.738Z,3476
2018-07-21T13:31:22.768Z,3536
2018-07-21T13:32:22.801Z,3552
2018-07-21T13:33:23.007Z,3484
2018-07-21T13:34:22.606Z,3368
2018-07-21T13:35:22.638Z,3380
2018-07-21T13:36:22.676Z,3520
2018-07-21T13:37:22.832Z,3564
2018-07-21T13:38:23.000Z,3536
2018-07-21T13:39:22.769Z,3436
2018-07-21T13:40:23.107Z,3320
2018-07-21T13:41:22.841Z,3164
2018-07-21T13:42:23.139Z,3032
2018-07-21T13:43:22.900Z,2876
2018-07-21T13:44:22.876Z,2748
2018-07-21T13:45:22.707Z,2712
2018-07-21T13:46:23.256Z,2736
2018-07-21T13:47:23.304Z,2824
2018-07-21T13:48:23.329Z,2884